createdAt,value
2017-08-05T00:00:49.130Z,0
2017-08-05T00:01:49.143Z,0
2017-08-05T00:02:49.441Z,0
2017-08-05T00:03:49.680Z,0
2017-08-05T00:04:49.357Z,0
2017-08-05T00:05:49.354Z,0
2017-08-05T00:06:49.364Z,0
2017-08-05T00:07:49.310Z,0
2017-08-05T00:08:49.401Z,0
2017-08-05T00:09:49.280Z,0
2017-08-05T00:10:48.681Z,0
2017-08-05T00:11:49.548Z,0
2017-08-05T00:12:49.560Z,0
2017-08-05T00:13:48.719Z,0
2017-08-05T00:14:49.512Z,0
2017-08-05T00:15:49.204Z,0
2017-08-05T00:16:48.874Z,0
2017-08-05T00:17:49.151Z,0
2017-08-05T00:18:48.839Z,0
2017-08-05T00:19:48.891Z,0
2017-08-05T00:20:49.222Z,0
2017-08-05T00:21:49.144Z,0
2017-08-05T00:22:49.108Z,0
2017-08-05T00:23:49.390Z,0
2017-08-05T00:24:49.391Z,0
2017-08-05T00:25:49.351Z,0
2017-08-05T00:26:48.728Z,0
2017-08-05T00:27:49.312Z,0
2017-08-05T00:28:48.717Z,0
2017-08-05T00:29:49.258Z,0
2017-08-05T00:30:48.672Z,0
2017-08-05T00:31:49.251Z,0
2017-08-05T00:32:48.962Z,0
2017-08-05T00:33:48.613Z,0
2017-08-05T00:34:48.961Z,0
2017-08-05T00:35:48.568Z,0
2017-08-05T00:36:49.188Z,0
2017-08-05T00:37:48.850Z,0
2017-08-05T00:38:48.916Z,0
2017-08-05T00:39:48.533Z,0
2017-08-05T00:40:48.182Z,0
2017-08-05T00:41:48.791Z,0
2017-08-05T00:42:48.584Z,0
2017-08-05T00:43:48.790Z,0
2017-08-05T00:44:48.730Z,0
2017-08-05T00:45:48.749Z,0
2017-08-05T00:46:48.732Z,0
2017-08-05T00:47:48.695Z,0
2017-08-05T00:48:48.715Z,0
2017-08-05T00:49:48.654Z,0
2017-08-05T00:50:48.980Z,0
2017-08-05T00:51:48.639Z,0
2017-08-05T00:52:48.312Z,0
2017-08-05T00:53:48.912Z,0
2017-08-05T00:54:48.309Z,0
2017-08-05T00:55:48.888Z,0
2017-08-05T00:56:47.964Z,0
2017-08-05T00:57:48.251Z,0
2017-08-05T00:58:48.531Z,0
2017-08-05T00:59:48.500Z,0
2017-08-05T01:00:48.797Z,0
2017-08-05T01:01:48.487Z,0
2017-08-05T01:02:48.474Z,0
2017-08-05T01:03:48.152Z,0
2017-08-05T01:04:48.441Z,0
2017-08-05T01:05:48.411Z,0
2017-08-05T01:06:48.130Z,0
2017-08-05T01:07:48.446Z,0
2017-08-05T01:08:47.779Z,0
2017-08-05T01:09:48.050Z,0
2017-08-05T01:10:48.331Z,0
2017-08-05T01:11:48.402Z,0
2017-08-05T01:12:48.317Z,0
2017-08-05T01:13:48.333Z,0
2017-08-05T01:14:48.370Z,0
2017-08-05T01:15:47.950Z,0
2017-08-05T01:16:48.548Z,0
2017-08-05T01:17:48.283Z,0
2017-08-05T01:18:47.897Z,0
2017-08-05T01:19:47.896Z,0
2017-08-05T01:20:48.190Z,0
2017-08-05T01:21:48.159Z,0
2017-08-05T01:22:48.449Z,0
2017-08-05T01:23:47.816Z,0
2017-08-05T01:24:48.105Z,0
2017-08-05T01:25:48.178Z,0
2017-08-05T01:26:48.387Z,0
2017-08-05T01:27:48.085Z,0
2017-08-05T01:28:48.044Z,0
2017-08-05T01:29:47.722Z,0
2017-08-05T01:30:48.371Z,0
2017-08-05T01:31:48.312Z,0
2017-08-05T01:32:47.991Z,0
2017-08-05T01:33:47.671Z,0
2017-08-05T01:34:48.269Z,0
2017-08-05T01:35:48.361Z,0
2017-08-05T01:36:48.227Z,0
2017-08-05T01:37:47.900Z,0
2017-08-05T01:38:48.191Z,0
2017-08-05T01:39:48.191Z,0
2017-08-05T01:40:47.966Z,0
2017-08-05T01:41:48.240Z,0
2017-08-05T01:42:48.191Z,0
2017-08-05T01:43:48.085Z,0
2017-08-05T01:44:48.112Z,0
2017-08-05T01:45:47.793Z,0
2017-08-05T01:46:48.202Z,0
2017-08-05T01:47:48.038Z,0
2017-08-05T01:48:47.740Z,0
2017-08-05T01:49:48.027Z,0
2017-08-05T01:50:48.147Z,0
2017-08-05T01:51:47.682Z,0
2017-08-05T01:52:47.977Z,0
2017-08-05T01:53:47.948Z,0
2017-08-05T01:54:48.132Z,0
2017-08-05T01:55:47.625Z,0
2017-08-05T01:56:48.012Z,0
2017-08-05T01:57:47.567Z,0
2017-08-05T01:58:47.963Z,0
2017-08-05T01:59:47.548Z,0
2017-08-05T02:00:47.524Z,0
2017-08-05T02:01:46.618Z,0
2017-08-05T02:02:47.556Z,0
2017-08-05T02:03:47.540Z,0
2017-08-05T02:04:47.844Z,0
2017-08-05T02:05:47.494Z,0
2017-08-05T02:06:47.204Z,0
2017-08-05T02:07:46.803Z,0
2017-08-05T02:08:47.439Z,0
2017-08-05T02:09:47.782Z,0
2017-08-05T02:10:47.710Z,0
2017-08-05T02:11:46.730Z,0
2017-08-05T02:12:47.086Z,0
2017-08-05T02:13:47.660Z,0
2017-08-05T02:14:47.633Z,0
2017-08-05T02:15:47.593Z,0
2017-08-05T02:16:46.984Z,0
2017-08-05T02:17:47.249Z,0
2017-08-05T02:18:46.922Z,0
2017-08-05T02:19:47.538Z,0
2017-08-05T02:20:46.878Z,0
2017-08-05T02:21:46.892Z,0
2017-08-05T02:22:46.869Z,0
2017-08-05T02:23:47.469Z,0
2017-08-05T02:24:47.441Z,0
2017-08-05T02:25:46.825Z,0
2017-08-05T02:26:46.880Z,0
2017-08-05T02:27:46.791Z,0
2017-08-05T02:28:47.068Z,0
2017-08-05T02:29:47.113Z,0
2017-08-05T02:30:46.729Z,0
2017-08-05T02:31:46.732Z,0
2017-08-05T02:32:47.055Z,0
2017-08-05T02:33:46.998Z,0
2017-08-05T02:34:46.693Z,0
2017-08-05T02:35:46.747Z,0
2017-08-05T02:36:46.951Z,0
2017-08-05T02:37:46.933Z,0
2017-08-05T02:38:46.928Z,0
2017-08-05T02:39:46.902Z,0
2017-08-05T02:40:47.187Z,0
2017-08-05T02:41:46.861Z,0
2017-08-05T02:42:46.616Z,0
2017-08-05T02:43:46.203Z,0
2017-08-05T02:44:46.813Z,0
2017-08-05T02:45:46.502Z,0
2017-08-05T02:46:47.103Z,0
2017-08-05T02:47:46.465Z,0
2017-08-05T02:48:46.142Z,0
2017-08-05T02:49:46.731Z,0
2017-08-05T02:50:47.035Z,0
2017-08-05T02:51:47.006Z,0
2017-08-05T02:52:46.671Z,0
2017-08-05T02:53:46.376Z,0
2017-08-05T02:54:46.320Z,0
2017-08-05T02:55:46.634Z,0
2017-08-05T02:56:46.622Z,0
2017-08-05T02:57:46.902Z,0
2017-08-05T02:58:46.600Z,0
2017-08-05T02:59:46.577Z,0
2017-08-05T03:00:46.292Z,0
2017-08-05T03:01:46.846Z,0
2017-08-05T03:02:46.224Z,0
2017-08-05T03:03:46.809Z,0
2017-08-05T03:04:46.191Z,0
2017-08-05T03:05:46.202Z,0
2017-08-05T03:06:46.130Z,0
2017-08-05T03:07:45.511Z,0
2017-08-05T03:08:46.394Z,0
2017-08-05T03:09:46.720Z,0
2017-08-05T03:10:46.683Z,0
2017-08-05T03:11:46.055Z,0
2017-08-05T03:12:46.682Z,0
2017-08-05T03:13:46.335Z,0
2017-08-05T03:14:46.334Z,0
2017-08-05T03:15:45.698Z,0
2017-08-05T03:16:46.305Z,0
2017-08-05T03:17:45.963Z,0
2017-08-05T03:18:46.566Z,0
2017-08-05T03:19:45.910Z,0
2017-08-05T03:20:46.537Z,0
2017-08-05T03:21:45.920Z,0
2017-08-05T03:22:46.199Z,0
2017-08-05T03:23:46.481Z,0
2017-08-05T03:24:45.841Z,0
2017-08-05T03:25:46.140Z,0
2017-08-05T03:26:46.119Z,0
2017-08-05T03:27:46.143Z,0
2017-08-05T03:28:46.404Z,0
2017-08-05T03:29:45.831Z,0
2017-08-05T03:30:46.076Z,0
2017-08-05T03:31:45.820Z,0
2017-08-05T03:32:46.310Z,0
2017-08-05T03:33:46.119Z,0
2017-08-05T03:34:46.000Z,0
2017-08-05T03:35:45.671Z,0
2017-08-05T03:36:45.661Z,0
2017-08-05T03:37:45.951Z,0
2017-08-05T03:38:45.634Z,0
2017-08-05T03:39:45.931Z,0
2017-08-05T03:40:45.296Z,0
2017-08-05T03:41:45.642Z,0
2017-08-05T03:42:45.543Z,0
2017-08-05T03:43:46.157Z,0
2017-08-05T03:44:45.834Z,0
2017-08-05T03:45:46.130Z,0
2017-08-05T03:46:46.103Z,0
2017-08-05T03:47:45.802Z,0
2017-08-05T03:48:45.770Z,0
2017-08-05T03:49:45.762Z,0
2017-08-05T03:50:45.744Z,0
2017-08-05T03:51:45.733Z,0
2017-08-05T03:52:45.742Z,0
2017-08-05T03:53:45.682Z,0
2017-08-05T03:54:45.730Z,0
2017-08-05T03:55:45.646Z,0
2017-08-05T03:56:45.661Z,0
2017-08-05T03:57:45.623Z,0
2017-08-05T03:58:45.611Z,0
2017-08-05T03:59:45.588Z,0
2017-08-05T04:00:45.874Z,0
2017-08-05T04:01:45.591Z,0
2017-08-05T04:02:45.532Z,0
2017-08-05T04:03:45.845Z,0
2017-08-05T04:04:45.822Z,0
2017-08-05T04:05:45.571Z,0
2017-08-05T04:06:45.821Z,0
2017-08-05T04:07:45.612Z,0
2017-08-05T04:08:45.815Z,0
2017-08-05T04:09:45.751Z,0
2017-08-05T04:10:45.841Z,0
2017-08-05T04:11:45.818Z,0
2017-08-05T04:12:45.701Z,0
2017-08-05T04:13:45.808Z,0
2017-08-05T04:14:45.662Z,0
2017-08-05T04:15:45.733Z,0
2017-08-05T04:16:45.012Z,0
2017-08-05T04:17:45.674Z,0
2017-08-05T04:18:45.645Z,0
2017-08-05T04:19:45.281Z,0
2017-08-05T04:20:45.271Z,0
2017-08-05T04:21:45.263Z,0
2017-08-05T04:22:45.312Z,0
2017-08-05T04:23:45.201Z,0
2017-08-05T04:24:45.181Z,0
2017-08-05T04:25:44.915Z,0
2017-08-05T04:26:45.156Z,0
2017-08-05T04:27:45.151Z,0
2017-08-05T04:28:44.880Z,0
2017-08-05T04:29:45.495Z,0
2017-08-05T04:30:45.092Z,0
2017-08-05T04:31:45.132Z,0
2017-08-05T04:32:45.072Z,0
2017-08-05T04:33:45.052Z,5
2017-08-05T04:34:44.719Z,5
2017-08-05T04:35:45.442Z,5
2017-08-05T04:36:44.383Z,5
2017-08-05T04:37:44.984Z,5
2017-08-05T04:38:45.324Z,5
2017-08-05T04:39:44.622Z,5
2017-08-05T04:40:45.243Z,5
2017-08-05T04:41:45.282Z,5
2017-08-05T04:42:45.321Z,5
2017-08-05T04:43:45.250Z,5
2017-08-05T04:44:45.226Z,5
2017-08-05T04:45:45.273Z,5
2017-08-05T04:46:45.154Z,5
2017-08-05T04:47:45.223Z,5
2017-08-05T04:48:45.132Z,5
2017-08-05T04:49:44.841Z,5
2017-08-05T04:50:44.767Z,5
2017-08-05T04:51:44.752Z,5
2017-08-05T04:52:44.422Z,5
2017-08-05T04:53:44.420Z,5
2017-08-05T04:54:44.421Z,5
2017-08-05T04:55:44.690Z,5
2017-08-05T04:56:44.384Z,5
2017-08-05T04:57:44.381Z,5
2017-08-05T04:58:44.324Z,10
2017-08-05T04:59:44.333Z,10
2017-08-05T05:00:44.611Z,10
2017-08-05T05:01:44.612Z,10
2017-08-05T05:02:43.656Z,10
2017-08-05T05:03:44.561Z,10
2017-08-05T05:04:44.542Z,10
2017-08-05T05:05:43.924Z,10
2017-08-05T05:06:44.841Z,10
2017-08-05T05:07:44.203Z,10
2017-08-05T05:08:44.482Z,10
2017-08-05T05:09:44.475Z,10
2017-08-05T05:10:44.449Z,15
2017-08-05T05:11:44.751Z,15
2017-08-05T05:12:44.420Z,15
2017-08-05T05:13:44.107Z,15
2017-08-05T05:14:44.691Z,15
2017-08-05T05:15:44.366Z,15
2017-08-05T05:16:44.352Z,15
2017-08-05T05:17:44.332Z,10
2017-08-05T05:18:44.320Z,10
2017-08-05T05:19:44.310Z,10
2017-08-05T05:20:43.982Z,10
2017-08-05T05:21:44.568Z,10
2017-08-05T05:22:43.352Z,10
2017-08-05T05:23:43.946Z,10
2017-08-05T05:24:43.926Z,10
2017-08-05T05:25:43.919Z,10
2017-08-05T05:26:43.922Z,10
2017-08-05T05:27:44.481Z,10
2017-08-05T05:28:43.918Z,10
2017-08-05T05:29:44.489Z,15
2017-08-05T05:30:43.520Z,15
2017-08-05T05:31:43.820Z,15
2017-08-05T05:32:43.471Z,15
2017-08-05T05:33:44.413Z,15
2017-08-05T05:34:43.823Z,15
2017-08-05T05:35:44.071Z,15
2017-08-05T05:36:44.049Z,15
2017-08-05T05:37:44.322Z,15
2017-08-05T05:38:44.313Z,15
2017-08-05T05:39:44.300Z,15
2017-08-05T05:40:43.996Z,15
2017-08-05T05:41:44.271Z,15
2017-08-05T05:42:44.457Z,15
2017-08-05T05:43:43.016Z,15
2017-08-05T05:44:44.207Z,10
2017-08-05T05:45:43.910Z,10
2017-08-05T05:46:43.574Z,10
2017-08-05T05:47:44.181Z,10
2017-08-05T05:48:43.229Z,10
2017-08-05T05:49:44.145Z,15
2017-08-05T05:50:43.551Z,20
2017-08-05T05:51:43.185Z,20
2017-08-05T05:52:43.910Z,20
2017-08-05T05:53:44.065Z,20
2017-08-05T05:54:43.270Z,25
2017-08-05T05:55:43.431Z,25
2017-08-05T05:56:43.413Z,25
2017-08-05T05:57:43.383Z,25
2017-08-05T05:58:43.481Z,25
2017-08-05T05:59:43.485Z,25
2017-08-05T06:00:43.345Z,25
2017-08-05T06:01:43.653Z,25
2017-08-05T06:02:43.313Z,25
2017-08-05T06:03:43.372Z,25
2017-08-05T06:04:43.291Z,25
2017-08-05T06:05:43.606Z,25
2017-08-05T06:06:43.541Z,25
2017-08-05T06:07:42.951Z,25
2017-08-05T06:08:43.225Z,25
2017-08-05T06:09:43.612Z,25
2017-08-05T06:10:43.802Z,25
2017-08-05T06:11:43.474Z,25
2017-08-05T06:12:43.153Z,30
2017-08-05T06:13:43.433Z,30
2017-08-05T06:14:43.439Z,35
2017-08-05T06:15:43.440Z,35
2017-08-05T06:16:43.411Z,40
2017-08-05T06:17:43.151Z,40
2017-08-05T06:18:43.358Z,40
2017-08-05T06:19:43.389Z,40
2017-08-05T06:20:43.332Z,40
2017-08-05T06:21:43.610Z,45
2017-08-05T06:22:43.352Z,50
2017-08-05T06:23:43.012Z,55
2017-08-05T06:24:43.312Z,60
2017-08-05T06:25:43.242Z,55
2017-08-05T06:26:43.539Z,50
2017-08-05T06:27:43.207Z,50
2017-08-05T06:28:43.511Z,60
2017-08-05T06:29:43.185Z,60
2017-08-05T06:30:43.192Z,55
2017-08-05T06:31:43.166Z,50
2017-08-05T06:32:43.427Z,50
2017-08-05T06:33:43.425Z,50
2017-08-05T06:34:43.124Z,55
2017-08-05T06:35:43.392Z,55
2017-08-05T06:36:43.386Z,55
2017-08-05T06:37:43.460Z,45
2017-08-05T06:38:43.462Z,45
2017-08-05T06:39:43.323Z,40
2017-08-05T06:40:43.332Z,40
2017-08-05T06:41:43.450Z,35
2017-08-05T06:42:42.367Z,35
2017-08-05T06:43:43.382Z,35
2017-08-05T06:44:43.249Z,35
2017-08-05T06:45:43.272Z,30
2017-08-05T06:46:43.290Z,25
2017-08-05T06:47:43.224Z,25
2017-08-05T06:48:43.282Z,25
2017-08-05T06:49:42.545Z,25
2017-08-05T06:50:43.259Z,25
2017-08-05T06:51:42.201Z,25
2017-08-05T06:52:43.239Z,25
2017-08-05T06:53:42.804Z,25
2017-08-05T06:54:43.179Z,30
2017-08-05T06:55:43.082Z,35
2017-08-05T06:56:42.788Z,40
2017-08-05T06:57:42.731Z,40
2017-08-05T06:58:42.741Z,40
2017-08-05T06:59:42.702Z,40
2017-08-05T07:00:42.682Z,40
2017-08-05T07:01:42.043Z,40
2017-08-05T07:02:42.333Z,40
2017-08-05T07:03:42.711Z,45
2017-08-05T07:04:42.606Z,45
2017-08-05T07:05:42.583Z,45
2017-08-05T07:06:42.264Z,40
2017-08-05T07:07:42.302Z,35
2017-08-05T07:08:42.932Z,35
2017-08-05T07:09:42.241Z,35
2017-08-05T07:10:42.193Z,40
2017-08-05T07:11:42.585Z,40
2017-08-05T07:12:41.931Z,40
2017-08-05T07:13:42.456Z,40
2017-08-05T07:14:42.257Z,40
2017-08-05T07:15:42.145Z,40
2017-08-05T07:16:42.941Z,40
2017-08-05T07:17:42.425Z,40
2017-08-05T07:18:42.465Z,40
2017-08-05T07:19:42.673Z,45
2017-08-05T07:20:42.396Z,45
2017-08-05T07:21:42.060Z,45
2017-08-05T07:22:41.711Z,40
2017-08-05T07:23:42.003Z,45
2017-08-05T07:24:42.031Z,45
2017-08-05T07:25:42.271Z,45
2017-08-05T07:26:42.051Z,45
2017-08-05T07:27:42.551Z,45
2017-08-05T07:28:41.972Z,45
2017-08-05T07:29:42.524Z,45
2017-08-05T07:30:42.559Z,40
2017-08-05T07:31:42.200Z,40
2017-08-05T07:32:42.184Z,35
2017-08-05T07:33:42.183Z,40
2017-08-05T07:34:42.503Z,40
2017-08-05T07:35:42.425Z,40
2017-08-05T07:36:42.529Z,40
2017-08-05T07:37:41.782Z,40
2017-08-05T07:38:42.065Z,40
2017-08-05T07:39:42.100Z,40
2017-08-05T07:40:41.741Z,40
2017-08-05T07:41:41.721Z,45
2017-08-05T07:42:42.033Z,45
2017-08-05T07:43:42.054Z,40
2017-08-05T07:44:41.961Z,45
2017-08-05T07:45:42.041Z,45
2017-08-05T07:46:42.261Z,50
2017-08-05T07:47:41.633Z,50
2017-08-05T07:48:41.913Z,50
2017-08-05T07:49:41.577Z,50
2017-08-05T07:50:41.569Z,50
2017-08-05T07:51:42.233Z,50
2017-08-05T07:52:41.846Z,50
2017-08-05T07:53:41.510Z,45
2017-08-05T07:54:42.127Z,40
2017-08-05T07:55:42.111Z,45
2017-08-05T07:56:41.483Z,45
2017-08-05T07:57:41.784Z,45
2017-08-05T07:58:41.750Z,45
2017-08-05T07:59:41.446Z,45
2017-08-05T08:00:42.041Z,45
2017-08-05T08:01:41.717Z,50
2017-08-05T08:02:41.690Z,50
2017-08-05T08:03:41.358Z,45
2017-08-05T08:04:41.349Z,50
2017-08-05T08:05:41.968Z,50
2017-08-05T08:06:41.321Z,50
2017-08-05T08:07:41.913Z,55
2017-08-05T08:08:41.596Z,55
2017-08-05T08:09:41.899Z,60
2017-08-05T08:10:41.880Z,60
2017-08-05T08:11:41.245Z,60
2017-08-05T08:12:41.570Z,65
2017-08-05T08:13:41.541Z,65
2017-08-05T08:14:41.240Z,70
2017-08-05T08:15:41.487Z,75
2017-08-05T08:16:41.795Z,75
2017-08-05T08:17:40.861Z,75
2017-08-05T08:18:41.438Z,75
2017-08-05T08:19:41.537Z,80
2017-08-05T08:20:41.413Z,85
2017-08-05T08:21:41.102Z,90
2017-08-05T08:22:41.091Z,95
2017-08-05T08:23:41.392Z,95
2017-08-05T08:24:41.664Z,90
2017-08-05T08:25:41.332Z,80
2017-08-05T08:26:41.621Z,75
2017-08-05T08:27:41.402Z,75
2017-08-05T08:28:41.300Z,75
2017-08-05T08:29:40.986Z,75
2017-08-05T08:30:41.319Z,75
2017-08-05T08:31:41.251Z,75
2017-08-05T08:32:41.529Z,75
2017-08-05T08:33:41.540Z,80
2017-08-05T08:34:40.890Z,80
2017-08-05T08:35:41.504Z,80
2017-08-05T08:36:41.500Z,75
2017-08-05T08:37:40.890Z,70
2017-08-05T08:38:40.839Z,65
2017-08-05T08:39:40.833Z,60
2017-08-05T08:40:41.129Z,60
2017-08-05T08:41:41.121Z,65
2017-08-05T08:42:41.379Z,70
2017-08-05T08:43:40.456Z,75
2017-08-05T08:44:41.074Z,80
2017-08-05T08:45:41.071Z,80
2017-08-05T08:46:41.329Z,80
2017-08-05T08:47:41.314Z,80
2017-08-05T08:48:40.705Z,85
2017-08-05T08:49:41.039Z,85
2017-08-05T08:50:40.351Z,85
2017-08-05T08:51:40.980Z,90
2017-08-05T08:52:40.982Z,90
2017-08-05T08:53:40.685Z,90
2017-08-05T08:54:40.910Z,85
2017-08-05T08:55:40.891Z,75
2017-08-05T08:56:40.881Z,65
2017-08-05T08:57:40.858Z,60
2017-08-05T08:58:40.861Z,55
2017-08-05T08:59:40.861Z,60
2017-08-05T09:00:41.160Z,75
2017-08-05T09:01:40.813Z,80
2017-08-05T09:02:40.822Z,95
2017-08-05T09:03:41.102Z,100
2017-08-05T09:04:40.861Z,105
2017-08-05T09:05:41.124Z,100
2017-08-05T09:06:41.157Z,105
2017-08-05T09:07:40.724Z,105
2017-08-05T09:08:41.078Z,110
2017-08-05T09:09:40.448Z,110
2017-08-05T09:10:40.977Z,110
2017-08-05T09:11:41.007Z,105
2017-08-05T09:12:40.980Z,90
2017-08-05T09:13:40.626Z,75
2017-08-05T09:14:41.008Z,60
2017-08-05T09:15:41.018Z,55
2017-08-05T09:16:40.920Z,50
2017-08-05T09:17:40.913Z,55
2017-08-05T09:18:40.981Z,65
2017-08-05T09:19:40.971Z,70
2017-08-05T09:20:40.841Z,75
2017-08-05T09:21:40.831Z,75
2017-08-05T09:22:40.840Z,75
2017-08-05T09:23:40.909Z,70
2017-08-05T09:24:40.175Z,65
2017-08-05T09:25:40.813Z,70
2017-08-05T09:26:40.439Z,80
2017-08-05T09:27:40.418Z,85
2017-08-05T09:28:40.399Z,85
2017-08-05T09:29:40.438Z,80
2017-08-05T09:30:39.763Z,75
2017-08-05T09:31:40.407Z,70
2017-08-05T09:32:40.368Z,65
2017-08-05T09:33:40.697Z,60
2017-08-05T09:34:40.309Z,55
2017-08-05T09:35:40.323Z,55
2017-08-05T09:36:40.046Z,50
2017-08-05T09:37:39.940Z,50
2017-08-05T09:38:40.370Z,55
2017-08-05T09:39:39.622Z,65
2017-08-05T09:40:40.644Z,75
2017-08-05T09:41:40.207Z,80
2017-08-05T09:42:40.501Z,80
2017-08-05T09:43:40.182Z,70
2017-08-05T09:44:40.472Z,65
2017-08-05T09:45:40.444Z,60
2017-08-05T09:46:40.141Z,50
2017-08-05T09:47:40.443Z,45
2017-08-05T09:48:40.404Z,45
2017-08-05T09:49:40.417Z,40
2017-08-05T09:50:40.129Z,35
2017-08-05T09:51:40.050Z,25
2017-08-05T09:52:39.419Z,25
2017-08-05T09:53:40.320Z,25
2017-08-05T09:54:39.717Z,25
2017-08-05T09:55:40.287Z,30
2017-08-05T09:56:40.288Z,35
2017-08-05T09:57:39.742Z,40
2017-08-05T09:58:39.944Z,40
2017-08-05T09:59:39.922Z,45
2017-08-05T10:00:39.917Z,50
2017-08-05T10:01:40.209Z,60
2017-08-05T10:02:39.868Z,70
2017-08-05T10:03:39.971Z,80
2017-08-05T10:04:39.849Z,90
2017-08-05T10:05:39.879Z,95
2017-08-05T10:06:39.840Z,105
2017-08-05T10:07:39.918Z,115
2017-08-05T10:08:40.121Z,120
2017-08-05T10:09:39.470Z,130
2017-08-05T10:10:40.079Z,140
2017-08-05T10:11:39.819Z,150
2017-08-05T10:12:39.551Z,160
2017-08-05T10:13:38.809Z,160
2017-08-05T10:14:40.009Z,160
2017-08-05T10:15:39.769Z,165
2017-08-05T10:16:39.387Z,165
2017-08-05T10:17:39.988Z,165
2017-08-05T10:18:39.950Z,155
2017-08-05T10:19:39.929Z,155
2017-08-05T10:20:39.927Z,175
2017-08-05T10:21:39.914Z,195
2017-08-05T10:22:39.890Z,210
2017-08-05T10:23:39.274Z,230
2017-08-05T10:24:39.678Z,315
2017-08-05T10:25:39.573Z,375
2017-08-05T10:26:39.570Z,265
2017-08-05T10:27:39.526Z,160
2017-08-05T10:28:39.613Z,125
2017-08-05T10:29:39.538Z,120
2017-08-05T10:30:39.470Z,105
2017-08-05T10:31:39.786Z,100
2017-08-05T10:32:39.158Z,100
2017-08-05T10:33:39.739Z,105
2017-08-05T10:34:39.736Z,110
2017-08-05T10:35:39.739Z,115
2017-08-05T10:36:39.860Z,125
2017-08-05T10:37:39.084Z,125
2017-08-05T10:38:39.179Z,125
2017-08-05T10:39:39.360Z,130
2017-08-05T10:40:39.378Z,135
2017-08-05T10:41:39.755Z,145
2017-08-05T10:42:39.419Z,140
2017-08-05T10:43:39.420Z,145
2017-08-05T10:44:39.329Z,145
2017-08-05T10:45:39.288Z,145
2017-08-05T10:46:38.987Z,145
2017-08-05T10:47:39.569Z,145
2017-08-05T10:48:39.249Z,135
2017-08-05T10:49:38.929Z,130
2017-08-05T10:50:38.983Z,120
2017-08-05T10:51:39.521Z,120
2017-08-05T10:52:39.188Z,120
2017-08-05T10:53:39.171Z,120
2017-08-05T10:54:38.857Z,120
2017-08-05T10:55:38.839Z,125
2017-08-05T10:56:39.480Z,125
2017-08-05T10:57:38.501Z,130
2017-08-05T10:58:39.089Z,135
2017-08-05T10:59:39.470Z,140
2017-08-05T11:00:39.390Z,145
2017-08-05T11:01:39.051Z,150
2017-08-05T11:02:39.358Z,150
2017-08-05T11:03:39.429Z,155
2017-08-05T11:04:38.726Z,155
2017-08-05T11:05:38.989Z,155
2017-08-05T11:06:38.682Z,145
2017-08-05T11:07:38.971Z,125
2017-08-05T11:08:38.989Z,110
2017-08-05T11:09:38.941Z,100
2017-08-05T11:10:38.926Z,90
2017-08-05T11:11:38.910Z,80
2017-08-05T11:12:38.602Z,70
2017-08-05T11:13:39.254Z,70
2017-08-05T11:14:38.570Z,70
2017-08-05T11:15:38.869Z,75
2017-08-05T11:16:38.881Z,80
2017-08-05T11:17:38.551Z,85
2017-08-05T11:18:38.825Z,90
2017-08-05T11:19:38.829Z,100
2017-08-05T11:20:38.489Z,105
2017-08-05T11:21:38.471Z,105
2017-08-05T11:22:39.068Z,105
2017-08-05T11:23:38.772Z,100
2017-08-05T11:24:38.745Z,100
2017-08-05T11:25:38.424Z,105
2017-08-05T11:26:38.704Z,115
2017-08-05T11:27:38.716Z,120
2017-08-05T11:28:38.684Z,125
2017-08-05T11:29:38.367Z,135
2017-08-05T11:30:38.666Z,140
2017-08-05T11:31:38.670Z,140
2017-08-05T11:32:38.641Z,140
2017-08-05T11:33:38.619Z,135
2017-08-05T11:34:38.586Z,135
2017-08-05T11:35:38.900Z,140
2017-08-05T11:36:38.301Z,150
2017-08-05T11:37:38.585Z,160
2017-08-05T11:38:38.868Z,165
2017-08-05T11:39:38.553Z,170
2017-08-05T11:40:38.551Z,175
2017-08-05T11:41:38.826Z,170
2017-08-05T11:42:38.811Z,165
2017-08-05T11:43:38.501Z,175
2017-08-05T11:44:38.781Z,205
2017-08-05T11:45:38.481Z,195
2017-08-05T11:46:38.752Z,170
2017-08-05T11:47:38.437Z,150
2017-08-05T11:48:38.437Z,130
2017-08-05T11:49:38.711Z,120
2017-08-05T11:50:38.391Z,115
2017-08-05T11:51:38.691Z,110
2017-08-05T11:52:38.683Z,110
2017-08-05T11:53:38.670Z,105
2017-08-05T11:54:38.644Z,105
2017-08-05T11:55:38.036Z,105
2017-08-05T11:56:38.618Z,110
2017-08-05T11:57:38.331Z,115
2017-08-05T11:58:38.602Z,120
2017-08-05T11:59:38.621Z,120
2017-08-05T12:00:38.572Z,125
2017-08-05T12:01:38.560Z,145
2017-08-05T12:02:38.532Z,165
2017-08-05T12:03:37.917Z,185
2017-08-05T12:04:37.890Z,305
2017-08-05T12:05:38.525Z,275
2017-08-05T12:06:38.604Z,395
2017-08-05T12:07:38.487Z,280
2017-08-05T12:08:38.587Z,335
2017-08-05T12:09:38.146Z,285
2017-08-05T12:10:38.288Z,230
2017-08-05T12:11:38.440Z,240
2017-08-05T12:12:37.810Z,250
2017-08-05T12:13:38.093Z,225
2017-08-05T12:14:38.512Z,250
2017-08-05T12:15:38.150Z,250
2017-08-05T12:16:38.368Z,250
2017-08-05T12:17:38.353Z,255
2017-08-05T12:18:38.038Z,235
2017-08-05T12:19:38.438Z,255
2017-08-05T12:20:38.010Z,240
2017-08-05T12:21:37.991Z,295
2017-08-05T12:22:37.976Z,360
2017-08-05T12:23:38.274Z,245
2017-08-05T12:24:38.247Z,240
2017-08-05T12:25:38.276Z,230
2017-08-05T12:26:38.259Z,240
2017-08-05T12:27:38.287Z,290
2017-08-05T12:28:37.930Z,315
2017-08-05T12:29:37.868Z,290
2017-08-05T12:30:38.191Z,260
2017-08-05T12:31:37.551Z,270
2017-08-05T12:32:37.835Z,320
2017-08-05T12:33:37.860Z,360
2017-08-05T12:34:38.142Z,320
2017-08-05T12:35:38.116Z,350
2017-08-05T12:36:38.118Z,355
2017-08-05T12:37:37.805Z,335
2017-08-05T12:38:38.079Z,225
2017-08-05T12:39:38.135Z,305
2017-08-05T12:40:38.054Z,305
2017-08-05T12:41:38.086Z,195
2017-08-05T12:42:38.027Z,300
2017-08-05T12:43:38.065Z,270
2017-08-05T12:44:38.037Z,170
2017-08-05T12:45:38.013Z,175
2017-08-05T12:46:37.385Z,280
2017-08-05T12:47:37.994Z,275
2017-08-05T12:48:37.984Z,275
2017-08-05T12:49:37.776Z,290
2017-08-05T12:50:37.632Z,310
2017-08-05T12:51:37.913Z,315
2017-08-05T12:52:37.608Z,310
2017-08-05T12:53:37.940Z,300
2017-08-05T12:54:37.353Z,300
2017-08-05T12:55:37.578Z,245
2017-08-05T12:56:37.611Z,250
2017-08-05T12:57:37.548Z,225
2017-08-05T12:58:37.555Z,270
2017-08-05T12:59:37.550Z,240
2017-08-05T13:00:37.511Z,270
2017-08-05T13:01:37.510Z,265
2017-08-05T13:02:37.233Z,260
2017-08-05T13:03:37.771Z,265
2017-08-05T13:04:37.533Z,270
2017-08-05T13:05:37.469Z,270
2017-08-05T13:06:37.237Z,270
2017-08-05T13:07:37.142Z,245
2017-08-05T13:08:37.753Z,280
2017-08-05T13:09:37.481Z,275
2017-08-05T13:10:37.403Z,280
2017-08-05T13:11:37.393Z,250
2017-08-05T13:12:37.452Z,275
2017-08-05T13:13:37.687Z,265
2017-08-05T13:14:37.092Z,260
2017-08-05T13:15:37.769Z,255
2017-08-05T13:16:37.040Z,275
2017-08-05T13:17:37.386Z,165
2017-08-05T13:18:37.324Z,175
2017-08-05T13:19:37.345Z,210
2017-08-05T13:20:37.393Z,175
2017-08-05T13:21:36.996Z,185
2017-08-05T13:22:36.981Z,265
2017-08-05T13:23:37.288Z,240
2017-08-05T13:24:37.275Z,270
2017-08-05T13:25:36.945Z,260
2017-08-05T13:26:36.636Z,170
2017-08-05T13:27:37.228Z,150
2017-08-05T13:28:36.903Z,150
2017-08-05T13:29:37.213Z,160
2017-08-05T13:30:36.904Z,165
2017-08-05T13:31:36.888Z,170
2017-08-05T13:32:37.241Z,205
2017-08-05T13:33:37.472Z,180
2017-08-05T13:34:37.143Z,170
2017-08-05T13:35:36.553Z,165
2017-08-05T13:36:36.834Z,160
2017-08-05T13:37:37.431Z,160
2017-08-05T13:38:37.414Z,160
2017-08-05T13:39:36.813Z,155
2017-08-05T13:40:37.092Z,160
2017-08-05T13:41:36.769Z,170
2017-08-05T13:42:36.769Z,265
2017-08-05T13:43:37.058Z,270
2017-08-05T13:44:37.036Z,175
2017-08-05T13:45:37.026Z,175
2017-08-05T13:46:37.333Z,170
2017-08-05T13:47:37.033Z,205
2017-08-05T13:48:37.023Z,205
2017-08-05T13:49:37.294Z,180
2017-08-05T13:50:36.353Z,185
2017-08-05T13:51:36.665Z,175
2017-08-05T13:52:36.937Z,170
2017-08-05T13:53:36.954Z,170
2017-08-05T13:54:36.334Z,170
2017-08-05T13:55:36.943Z,185
2017-08-05T13:56:37.239Z,200
2017-08-05T13:57:36.573Z,175
2017-08-05T13:58:36.563Z,165
2017-08-05T13:59:36.905Z,165
2017-08-05T14:00:36.866Z,230
2017-08-05T14:01:36.874Z,240
2017-08-05T14:02:36.840Z,265
2017-08-05T14:03:36.228Z,270
2017-08-05T14:04:37.113Z,275
2017-08-05T14:05:36.615Z,265
2017-08-05T14:06:37.093Z,200
2017-08-05T14:07:36.797Z,175
2017-08-05T14:08:36.488Z,145
2017-08-05T14:09:36.755Z,130
2017-08-05T14:10:36.459Z,115
2017-08-05T14:11:36.744Z,110
2017-08-05T14:12:36.425Z,100
2017-08-05T14:13:36.415Z,90
2017-08-05T14:14:37.056Z,75
2017-08-05T14:15:36.713Z,60
2017-08-05T14:16:36.691Z,50
2017-08-05T14:17:36.673Z,50